sensor_id;sensor_type;location;lat;lon;timestamp;pressure;altitude;pressure_sealevel;temperature;humidity
28935;BME280;16044;52.726;-2.108;2022-09-09T00:02:19;99325.84;;;14.43;84.05
28935;BME280;16044;52.726;-2.108;2022-09-09T00:07:39;99339.25;;;14.45;84.29
28935;BME280;16044;52.726;-2.108;2022-09-09T00:10:36;99329.63;;;14.42;84.51
28935;BME280;16044;52.726;-2.108;2022-09-09T00:14:03;99334.25;;;14.41;84.36
28935;BME280;16044;52.726;-2.108;2022-09-09T00:16:21;99334.03;;;14.43;84.53
28935;BME280;16044;52.726;-2.108;2022-09-09T00:19:15;99339.25;;;14.45;84.04
28935;BME280;16044;52.726;-2.108;2022-09-09T00:24:51;99343.25;;;14.42;84.02
28935;BME280;16044;52.726;-2.108;2022-09-09T00:27:34;99337.34;;;14.45;83.97
28935;BME280;16044;52.726;-2.108;2022-09-09T00:32:48;99345.31;;;14.47;84.66
28935;BME280;16044;52.726;-2.108;2022-09-09T00:35:32;99340.69;;;14.47;84.79
28935;BME280;16044;52.726;-2.108;2022-09-09T00:38:12;99339.63;;;14.48;84.93
28935;BME280;16044;52.726;-2.108;2022-09-09T00:40:50;99342.97;;;14.50;85.07
28935;BME280;16044;52.726;-2.108;2022-09-09T00:43:39;99335.97;;;14.54;85.02
28935;BME280;16044;52.726;-2.108;2022-09-09T00:52:45;99336.97;;;14.60;84.96
28935;BME280;16044;52.726;-2.108;2022-09-09T00:58:07;99344.59;;;14.70;84.78
28935;BME280;16044;52.726;-2.108;2022-09-09T01:00:43;99337.22;;;14.70;84.58
28935;BME280;16044;52.726;-2.108;2022-09-09T01:09:22;99345.19;;;14.72;85.09
28935;BME280;16044;52.726;-2.108;2022-09-09T01:12:07;99350.19;;;14.75;84.68
28935;BME280;16044;52.726;-2.108;2022-09-09T01:28:15;99339.53;;;14.85;84.68
28935;BME280;16044;52.726;-2.108;2022-09-09T01:30:45;99350.44;;;14.85;84.94
28935;BME280;16044;52.726;-2.108;2022-09-09T01:33:17;99347.50;;;14.87;84.70
28935;BME280;16044;52.726;-2.108;2022-09-09T01:35:54;99346.66;;;14.86;84.81
28935;BME280;16044;52.726;-2.108;2022-09-09T01:38:34;99343.72;;;14.88;84.63
28935;BME280;16044;52.726;-2.108;2022-09-09T01:41:02;99349.88;;;14.95;84.41
28935;BME280;16044;52.726;-2.108;2022-09-09T01:43:29;99352.00;;;14.93;84.66
28935;BME280;16044;52.726;-2.108;2022-09-09T01:46:00;99347.88;;;14.90;84.83
28935;BME280;16044;52.726;-2.108;2022-09-09T01:48:29;99351.56;;;14.96;84.68
28935;BME280;16044;52.726;-2.108;2022-09-09T01:50:57;99351.34;;;14.97;84.41
28935;BME280;16044;52.726;-2.108;2022-09-09T01:53:24;99345.50;;;14.94;85.01
28935;BME280;16044;52.726;-2.108;2022-09-09T02:01:20;99350.25;;;14.98;84.69
28935;BME280;16044;52.726;-2.108;2022-09-09T02:03:57;99345.88;;;14.97;84.91
28935;BME280;16044;52.726;-2.108;2022-09-09T02:08:59;99339.81;;;14.95;85.23
28935;BME280;16044;52.726;-2.108;2022-09-09T02:11:30;99349.78;;;15.01;85.23
28935;BME280;16044;52.726;-2.108;2022-09-09T02:14:22;99351.44;;;15.02;85.11
28935;BME280;16044;52.726;-2.108;2022-09-09T02:17:16;99349.44;;;14.98;84.99
28935;BME280;16044;52.726;-2.108;2022-09-09T02:19:54;99359.75;;;15.08;84.90
28935;BME280;16044;52.726;-2.108;2022-09-09T02:22:27;99358.56;;;15.04;85.10
28935;BME280;16044;52.726;-2.108;2022-09-09T02:24:58;99356.19;;;14.95;85.80
28935;BME280;16044;52.726;-2.108;2022-09-09T02:27:26;99352.28;;;15.03;85.17
28935;BME280;16044;52.726;-2.108;2022-09-09T02:29:56;99355.72;;;14.98;85.55
28935;BME280;16044;52.726;-2.108;2022-09-09T02:32:24;99362.34;;;15.02;85.28
28935;BME280;16044;52.726;-2.108;2022-09-09T02:35:00;99357.16;;;15.01;85.38
28935;BME280;16044;52.726;-2.108;2022-09-09T02:37:38;99358.91;;;14.95;85.52
28935;BME280;16044;52.726;-2.108;2022-09-09T02:40:08;99366.41;;;15.00;85.34
28935;BME280;16044;52.726;-2.108;2022-09-09T02:42:44;99359.50;;;14.97;85.35
28935;BME280;16044;52.726;-2.108;2022-09-09T02:45:18;99361.66;;;14.95;85.47
28935;BME280;16044;52.726;-2.108;2022-09-09T02:51:23;99365.28;;;14.89;85.60
28935;BME280;16044;52.726;-2.108;2022-09-09T02:56:54;99358.06;;;14.95;85.16
28935;BME280;16044;52.726;-2.108;2022-09-09T02:59:24;99359.97;;;14.94;85.42
28935;BME280;16044;52.726;-2.108;2022-09-09T03:01:51;99362.47;;;14.96;85.51
28935;BME280;16044;52.726;-2.108;2022-09-09T03:04:20;99359.03;;;15.00;85.51
28935;BME280;16044;52.726;-2.108;2022-09-09T03:06:47;99362.34;;;15.02;85.48
28935;BME280;16044;52.726;-2.108;2022-09-09T03:09:13;99363.88;;;14.98;85.47
28935;BME280;16044;52.726;-2.108;2022-09-09T03:11:40;99366.63;;;14.98;85.58
28935;BME280;16044;52.726;-2.108;2022-09-09T03:14:07;99369.56;;;14.97;85.81
28935;BME280;16044;52.726;-2.108;2022-09-09T03:16:34;99371.03;;;14.99;85.52
28935;BME280;16044;52.726;-2.108;2022-09-09T03:19:01;99377.44;;;14.93;85.93
28935;BME280;16044;52.726;-2.108;2022-09-09T03:21:28;99369.25;;;14.93;86.07
28935;BME280;16044;52.726;-2.108;2022-09-09T03:23:56;99375.16;;;14.90;86.61
28935;BME280;16044;52.726;-2.108;2022-09-09T03:26:23;99375.41;;;15.00;85.88
28935;BME280;16044;52.726;-2.108;2022-09-09T03:28:50;99374.22;;;14.96;86.11
28935;BME280;16044;52.726;-2.108;2022-09-09T03:31:18;99371.72;;;14.95;86.14
28935;BME280;16044;52.726;-2.108;2022-09-09T03:33:46;99381.56;;;14.96;86.33
28935;BME280;16044;52.726;-2.108;2022-09-09T03:36:13;99380.50;;;14.97;86.32
28935;BME280;16044;52.726;-2.108;2022-09-09T03:38:41;99383.47;;;14.95;86.48
28935;BME280;16044;52.726;-2.108;2022-09-09T03:41:08;99381.34;;;14.97;86.21
28935;BME280;16044;52.726;-2.108;2022-09-09T03:43:35;99379.66;;;14.96;86.37
28935;BME280;16044;52.726;-2.108;2022-09-09T03:46:03;99381.81;;;14.94;86.36
28935;BME280;16044;52.726;-2.108;2022-09-09T03:48:29;99381.13;;;14.99;86.10
28935;BME280;16044;52.726;-2.108;2022-09-09T03:50:56;99377.53;;;14.98;86.03
28935;BME280;16044;52.726;-2.108;2022-09-09T03:53:27;99383.84;;;14.99;85.98
28935;BME280;16044;52.726;-2.108;2022-09-09T03:55:56;99387.25;;;14.94;86.45
28935;BME280;16044;52.726;-2.108;2022-09-09T03:58:27;99379.66;;;14.96;86.42
28935;BME280;16044;52.726;-2.108;2022-09-09T04:00:56;99390.00;;;14.94;86.38
28935;BME280;16044;52.726;-2.108;2022-09-09T04:03:25;99388.34;;;14.93;86.56
28935;BME280;16044;52.726;-2.108;2022-09-09T04:05:55;99387.84;;;14.96;86.52
28935;BME280;16044;52.726;-2.108;2022-09-09T04:08:23;99389.75;;;14.96;86.47
28935;BME280;16044;52.726;-2.108;2022-09-09T04:10:54;99394.13;;;14.97;86.53
28935;BME280;16044;52.726;-2.108;2022-09-09T04:13:25;99391.06;;;14.93;86.40
28935;BME280;16044;52.726;-2.108;2022-09-09T04:15:58;99391.06;;;14.93;86.35
28935;BME280;16044;52.726;-2.108;2022-09-09T04:18:26;99386.66;;;14.92;86.62
28935;BME280;16044;52.726;-2.108;2022-09-09T04:20:55;99394.84;;;14.92;86.51
28935;BME280;16044;52.726;-2.108;2022-09-09T04:23:25;99400.53;;;14.91;86.65
28935;BME280;16044;52.726;-2.108;2022-09-09T04:25:56;99398.63;;;14.91;86.58
28935;BME280;16044;52.726;-2.108;2022-09-09T04:28:26;99394.41;;;14.95;86.46
28935;BME280;16044;52.726;-2.108;2022-09-09T04:30:56;99400.91;;;14.94;86.25
28935;BME280;16044;52.726;-2.108;2022-09-09T04:33:24;99404.94;;;14.92;86.46
28935;BME280;16044;52.726;-2.108;2022-09-09T04:35:53;99403.03;;;14.92;86.52
28935;BME280;16044;52.726;-2.108;2022-09-09T04:38:21;99407.06;;;14.90;86.56
28935;BME280;16044;52.726;-2.108;2022-09-09T04:40:50;99405.16;;;14.90;86.75
28935;BME280;16044;52.726;-2.108;2022-09-09T04:43:18;99415.47;;;14.88;86.83
28935;BME280;16044;52.726;-2.108;2022-09-09T04:45:47;99407.50;;;14.87;86.91
28935;BME280;16044;52.726;-2.108;2022-09-09T04:48:15;99412.53;;;14.90;86.76
28935;BME280;16044;52.726;-2.108;2022-09-09T04:50:42;99412.75;;;14.88;87.08
28935;BME280;16044;52.726;-2.108;2022-09-09T04:53:09;99415.47;;;14.88;86.87
28935;BME280;16044;52.726;-2.108;2022-09-09T04:55:36;99415.47;;;14.88;87.07
28935;BME280;16044;52.726;-2.108;2022-09-09T04:58:08;99408.34;;;14.87;87.07
28935;BME280;16044;52.726;-2.108;2022-09-09T05:00:35;99423.19;;;14.91;86.87
28935;BME280;16044;52.726;-2.108;2022-09-09T05:03:06;99413.34;;;14.90;86.82
28935;BME280;16044;52.726;-2.108;2022-09-09T05:05:35;99418.56;;;14.92;86.91
28935;BME280;16044;52.726;-2.108;2022-09-09T05:08:04;99424.63;;;14.94;86.63
28935;BME280;16044;52.726;-2.108;2022-09-09T05:10:32;99432.00;;;14.93;86.77
28935;BME280;16044;52.726;-2.108;2022-09-09T05:12:59;99431.63;;;14.90;87.01
28935;BME280;16044;52.726;-2.108;2022-09-09T05:15:26;99434.09;;;14.91;86.85
28935;BME280;16044;52.726;-2.108;2022-09-09T05:17:57;99428.88;;;14.90;86.84
28935;BME280;16044;52.726;-2.108;2022-09-09T05:20:27;99430.16;;;14.87;87.18
28935;BME280;16044;52.726;-2.108;2022-09-09T05:22:55;99438.22;;;14.82;87.27
28935;BME280;16044;52.726;-2.108;2022-09-09T05:25:23;99439.88;;;14.83;87.23
28935;BME280;16044;52.726;-2.108;2022-09-09T05:27:52;99433.38;;;14.84;87.17
28935;BME280;16044;52.726;-2.108;2022-09-09T05:30:21;99437.75;;;14.85;86.99
28935;BME280;16044;52.726;-2.108;2022-09-09T05:32:51;99439.44;;;14.86;86.93
28935;BME280;16044;52.726;-2.108;2022-09-09T05:35:18;99439.44;;;14.86;86.65
28935;BME280;16044;52.726;-2.108;2022-09-09T05:37:45;99444.03;;;14.86;86.81
28935;BME280;16044;52.726;-2.108;2022-09-09T05:40:12;99439.88;;;14.83;86.96
28935;BME280;16044;52.726;-2.108;2022-09-09T05:42:40;99440.97;;;14.82;87.01
28935;BME280;16044;52.726;-2.108;2022-09-09T05:45:08;99436.56;;;14.81;86.86
28935;BME280;16044;52.726;-2.108;2022-09-09T05:47:36;99444.75;;;14.81;86.93
28935;BME280;16044;52.726;-2.108;2022-09-09T05:50:04;99435.72;;;14.80;86.72
28935;BME280;16044;52.726;-2.108;2022-09-09T05:52:31;99437.84;;;14.78;86.88
28935;BME280;16044;52.726;-2.108;2022-09-09T05:54:59;99447.91;;;14.78;86.95
28935;BME280;16044;52.726;-2.108;2022-09-09T05:57:26;99450.66;;;14.78;87.10
28935;BME280;16044;52.726;-2.108;2022-09-09T05:59:53;99446.03;;;14.78;86.87
28935;BME280;16044;52.726;-2.108;2022-09-09T06:02:20;99446.88;;;14.79;87.26
28935;BME280;16044;52.726;-2.108;2022-09-09T06:04:47;99449.59;;;14.79;87.12
28935;BME280;16044;52.726;-2.108;2022-09-09T06:07:14;99456.03;;;14.85;87.11
28935;BME280;16044;52.726;-2.108;2022-09-09T06:09:41;99456.25;;;14.83;87.18
28935;BME280;16044;52.726;-2.108;2022-09-09T06:12:08;99458.53;;;14.86;87.23
28935;BME280;16044;52.726;-2.108;2022-09-09T06:14:35;99465.19;;;14.90;87.32
28935;BME280;16044;52.726;-2.108;2022-09-09T06:17:03;99475.78;;;14.98;87.27
28935;BME280;16044;52.726;-2.108;2022-09-09T06:19:30;99467.59;;;14.98;87.49
28935;BME280;16044;52.726;-2.108;2022-09-09T06:21:57;99471.06;;;15.06;87.12
28935;BME280;16044;52.726;-2.108;2022-09-09T06:24:25;99476.44;;;15.12;86.86
28935;BME280;16044;52.726;-2.108;2022-09-09T06:26:52;99475.59;;;15.12;87.24
28935;BME280;16044;52.726;-2.108;2022-09-09T06:29:20;99487.69;;;15.16;87.04
28935;BME280;16044;52.726;-2.108;2022-09-09T06:31:47;99492.34;;;15.15;87.43
28935;BME280;16044;52.726;-2.108;2022-09-09T06:34:14;99486.44;;;15.18;87.20
28935;BME280;16044;52.726;-2.108;2022-09-09T06:36:41;99493.69;;;15.25;86.93
28935;BME280;16044;52.726;-2.108;2022-09-09T06:39:08;99499.75;;;15.27;87.22
28935;BME280;16044;52.726;-2.108;2022-09-09T06:41:40;99493.81;;;15.30;87.27
28935;BME280;16044;52.726;-2.108;2022-09-09T06:44:09;99503.59;;;15.37;87.07
28935;BME280;16044;52.726;-2.108;2022-09-09T06:46:38;99505.84;;;15.40;87.21
28935;BME280;16044;52.726;-2.108;2022-09-09T06:49:08;99492.31;;;15.46;86.90
28935;BME280;16044;52.726;-2.108;2022-09-09T06:51:36;99488.53;;;15.47;86.78
28935;BME280;16044;52.726;-2.108;2022-09-09T06:54:10;99496.72;;;15.47;86.73
28935;BME280;16044;52.726;-2.108;2022-09-09T06:56:39;99500.66;;;15.51;86.27
28935;BME280;16044;52.726;-2.108;2022-09-09T06:59:09;99499.84;;;15.50;86.35
28935;BME280;16044;52.726;-2.108;2022-09-09T07:01:41;99514.53;;;15.49;86.39
28935;BME280;16044;52.726;-2.108;2022-09-09T07:04:17;99510.75;;;15.50;86.32
28935;BME280;16044;52.726;-2.108;2022-09-09T07:06:45;99510.75;;;15.50;86.46
28935;BME280;16044;52.726;-2.108;2022-09-09T07:09:14;99513.22;;;15.52;86.78
28935;BME280;16044;52.726;-2.108;2022-09-09T07:11:45;99516.94;;;15.57;86.63
28935;BME280;16044;52.726;-2.108;2022-09-09T07:14:14;99518.97;;;15.62;86.88
28935;BME280;16044;52.726;-2.108;2022-09-09T07:16:42;99521.06;;;15.78;85.94
28935;BME280;16044;52.726;-2.108;2022-09-09T07:19:11;99517.47;;;15.78;86.26
28935;BME280;16044;52.726;-2.108;2022-09-09T07:21:39;99520.72;;;15.87;85.91
28935;BME280;16044;52.726;-2.108;2022-09-09T07:24:09;99525.72;;;15.90;85.55
28935;BME280;16044;52.726;-2.108;2022-09-09T07:26:38;99531.66;;;15.87;85.91
28935;BME280;16044;52.726;-2.108;2022-09-09T07:29:07;99529.66;;;15.94;85.55
28935;BME280;16044;52.726;-2.108;2022-09-09T07:31:36;99533.66;;;15.91;85.57
28935;BME280;16044;52.726;-2.108;2022-09-09T07:34:05;99527.38;;;15.91;85.49
28935;BME280;16044;52.726;-2.108;2022-09-09T07:36:34;99530.09;;;15.91;85.71
28935;BME280;16044;52.726;-2.108;2022-09-09T07:39:09;99537.34;;;15.97;85.67
28935;BME280;16044;52.726;-2.108;2022-09-09T07:44:09;99541.91;;;16.15;85.68
28935;BME280;16044;52.726;-2.108;2022-09-09T07:46:38;99541.53;;;16.23;85.68
28935;BME280;16044;52.726;-2.108;2022-09-09T07:49:09;99542.50;;;16.29;85.36
28935;BME280;16044;52.726;-2.108;2022-09-09T07:51:42;99547.75;;;16.30;85.12
28935;BME280;16044;52.726;-2.108;2022-09-09T07:54:12;99556.06;;;16.35;85.12
28935;BME280;16044;52.726;-2.108;2022-09-09T07:56:41;99556.06;;;16.35;85.08
28935;BME280;16044;52.726;-2.108;2022-09-09T07:59:09;99564.38;;;16.41;84.82
28935;BME280;16044;52.726;-2.108;2022-09-09T08:01:41;99567.84;;;16.36;84.80
28935;BME280;16044;52.726;-2.108;2022-09-09T08:04:15;99565.69;;;16.38;84.64
28935;BME280;16044;52.726;-2.108;2022-09-09T08:06:49;99571.88;;;16.45;84.38
28935;BME280;16044;52.726;-2.108;2022-09-09T08:09:19;99562.13;;;16.49;84.12
28935;BME280;16044;52.726;-2.108;2022-09-09T08:11:47;99568.91;;;16.47;84.50
28935;BME280;16044;52.726;-2.108;2022-09-09T08:14:14;99564.97;;;16.54;84.14
28935;BME280;16044;52.726;-2.108;2022-09-09T08:16:44;99571.41;;;16.60;84.07
28935;BME280;16044;52.726;-2.108;2022-09-09T08:19:13;99561.41;;;16.66;84.19
28935;BME280;16044;52.726;-2.108;2022-09-09T08:21:43;99562.72;;;16.75;83.55
28935;BME280;16044;52.726;-2.108;2022-09-09T08:24:10;99560.06;;;16.80;83.41
28935;BME280;16044;52.726;-2.108;2022-09-09T08:26:40;99565.22;;;16.88;83.21
28935;BME280;16044;52.726;-2.108;2022-09-09T08:29:10;99572.56;;;17.00;83.32
28935;BME280;16044;52.726;-2.108;2022-09-09T08:31:43;99573.00;;;17.08;82.71
28935;BME280;16044;52.726;-2.108;2022-09-09T08:34:14;99570.63;;;17.12;82.49
28935;BME280;16044;52.726;-2.108;2022-09-09T08:36:44;99574.53;;;17.16;82.45
28935;BME280;16044;52.726;-2.108;2022-09-09T08:39:14;99577.63;;;17.20;81.97
28935;BME280;16044;52.726;-2.108;2022-09-09T08:41:54;99581.81;;;17.22;81.67
28935;BME280;16044;52.726;-2.108;2022-09-09T08:50:38;99579.44;;;17.14;81.15
28935;BME280;16044;52.726;-2.108;2022-09-09T08:55:56;99584.44;;;17.17;81.48
28935;BME280;16044;52.726;-2.108;2022-09-09T08:58:32;99587.75;;;17.19;81.48
28935;BME280;16044;52.726;-2.108;2022-09-09T09:07:13;99598.78;;;17.36;80.47
28935;BME280;16044;52.726;-2.108;2022-09-09T09:09:46;99605.97;;;17.54;80.51
28935;BME280;16044;52.726;-2.108;2022-09-09T09:12:22;99605.97;;;17.54;80.51
28935;BME280;16044;52.726;-2.108;2022-09-09T09:14:50;99613.81;;;17.62;79.56
28935;BME280;16044;52.726;-2.108;2022-09-09T09:17:19;99611.97;;;17.51;79.69
28935;BME280;16044;52.726;-2.108;2022-09-09T09:19:48;99611.97;;;17.51;79.47
28935;BME280;16044;52.726;-2.108;2022-09-09T09:22:28;99623.97;;;17.50;79.47
28935;BME280;16044;52.726;-2.108;2022-09-09T09:30:21;99630.94;;;17.69;79.49
28935;BME280;16044;52.726;-2.108;2022-09-09T09:33:08;99631.13;;;17.80;79.39
28935;BME280;16044;52.726;-2.108;2022-09-09T09:35:41;99631.22;;;17.97;79.19
28935;BME280;16044;52.726;-2.108;2022-09-09T09:38:21;99635.56;;;18.09;79.02
28935;BME280;16044;52.726;-2.108;2022-09-09T09:41:10;99641.53;;;18.23;78.28
28935;BME280;16044;52.726;-2.108;2022-09-09T09:43:40;99648.53;;;18.31;77.97
28935;BME280;16044;52.726;-2.108;2022-09-09T09:46:23;99649.13;;;18.33;77.11
28935;BME280;16044;52.726;-2.108;2022-09-09T09:49:04;99648.28;;;18.33;77.02
28935;BME280;16044;52.726;-2.108;2022-09-09T09:51:33;99659.19;;;18.44;76.76
28935;BME280;16044;52.726;-2.108;2022-09-09T09:56:40;99659.84;;;18.51;76.11
28935;BME280;16044;52.726;-2.108;2022-09-09T09:59:20;99664.34;;;18.58;75.79
28935;BME280;16044;52.726;-2.108;2022-09-09T10:02:21;99664.84;;;18.55;75.51
28935;BME280;16044;52.726;-2.108;2022-09-09T10:05:13;99662.50;;;18.63;75.03
28935;BME280;16044;52.726;-2.108;2022-09-09T10:07:44;99663.66;;;18.67;75.26
28935;BME280;16044;52.726;-2.108;2022-09-09T10:10:26;99675.25;;;18.69;74.59
28935;BME280;16044;52.726;-2.108;2022-09-09T10:13:36;99669.69;;;18.81;74.84
28935;BME280;16044;52.726;-2.108;2022-09-09T10:19:36;99673.59;;;18.85;73.35
28935;BME280;16044;52.726;-2.108;2022-09-09T10:22:26;99669.69;;;18.81;72.68
28935;BME280;16044;52.726;-2.108;2022-09-09T10:33:56;99680.97;;;18.68;73.96
28935;BME280;16044;52.726;-2.108;2022-09-09T10:36:47;99691.38;;;18.66;73.78
28935;BME280;16044;52.726;-2.108;2022-09-09T10:39:33;99687.97;;;18.59;73.07
28935;BME280;16044;52.726;-2.108;2022-09-09T10:42:16;99692.19;;;18.49;72.92
28935;BME280;16044;52.726;-2.108;2022-09-09T10:50:42;99693.13;;;18.55;73.56
28935;BME280;16044;52.726;-2.108;2022-09-09T10:56:33;99698.69;;;18.77;73.25
28935;BME280;16044;52.726;-2.108;2022-09-09T10:59:06;99696.78;;;18.78;71.72
28935;BME280;16044;52.726;-2.108;2022-09-09T11:02:29;99691.66;;;18.81;72.58
28935;BME280;16044;52.726;-2.108;2022-09-09T11:05:18;99693.88;;;19.01;71.90
28935;BME280;16044;52.726;-2.108;2022-09-09T11:08:09;99695.97;;;19.11;72.00
28935;BME280;16044;52.726;-2.108;2022-09-09T11:10:52;99701.09;;;19.24;71.19
28935;BME280;16044;52.726;-2.108;2022-09-09T11:13:56;99693.47;;;19.32;70.13
28935;BME280;16044;52.726;-2.108;2022-09-09T11:21:59;99691.09;;;19.79;69.40
28935;BME280;16044;52.726;-2.108;2022-09-09T11:40:20;99710.47;;;20.17;64.77
28935;BME280;16044;52.726;-2.108;2022-09-09T11:43:01;99710.38;;;20.06;65.63
28935;BME280;16044;52.726;-2.108;2022-09-09T11:45:33;99713.19;;;20.12;65.65
28935;BME280;16044;52.726;-2.108;2022-09-09T11:48:03;99710.47;;;20.17;64.97
28935;BME280;16044;52.726;-2.108;2022-09-09T11:50:35;99713.75;;;20.14;65.48
28935;BME280;16044;52.726;-2.108;2022-09-09T11:53:22;99717.16;;;20.26;64.53
28935;BME280;16044;52.726;-2.108;2022-09-09T11:56:12;99720.59;;;20.38;65.66
28935;BME280;16044;52.726;-2.108;2022-09-09T11:58:54;99712.81;;;20.57;64.57
28935;BME280;16044;52.726;-2.108;2022-09-09T12:06:53;99711.84;;;21.11;63.74
28935;BME280;16044;52.726;-2.108;2022-09-09T12:09:29;99723.47;;;21.18;62.20
28935;BME280;16044;52.726;-2.108;2022-09-09T12:19:41;99714.84;;;21.47;61.79
28935;BME280;16044;52.726;-2.108;2022-09-09T12:28:44;99715.91;;;21.41;60.60
28935;BME280;16044;52.726;-2.108;2022-09-09T12:31:41;99712.53;;;21.34;60.74
28935;BME280;16044;52.726;-2.108;2022-09-09T12:34:17;99713.63;;;21.28;60.18
28935;BME280;16044;52.726;-2.108;2022-09-09T12:37:16;99714.19;;;21.30;60.29
28935;BME280;16044;52.726;-2.108;2022-09-09T12:39:51;99720.28;;;21.37;60.25
28935;BME280;16044;52.726;-2.108;2022-09-09T12:42:22;99720.91;;;21.44;60.13
28935;BME280;16044;52.726;-2.108;2022-09-09T12:44:57;99724.31;;;21.61;60.01
28935;BME280;16044;52.726;-2.108;2022-09-09T12:50:25;99723.84;;;21.85;59.32
28935;BME280;16044;52.726;-2.108;2022-09-09T12:52:56;99720.03;;;21.91;59.36
28935;BME280;16044;52.726;-2.108;2022-09-09T12:55:29;99727.72;;;21.94;59.43
28935;BME280;16044;52.726;-2.108;2022-09-09T12:58:01;99730.53;;;22.05;58.77
28935;BME280;16044;52.726;-2.108;2022-09-09T13:00:32;99728.59;;;21.95;58.44
28935;BME280;16044;52.726;-2.108;2022-09-09T13:03:02;99731.63;;;21.98;58.27
28935;BME280;16044;52.726;-2.108;2022-09-09T13:05:43;99732.75;;;22.03;57.85
28935;BME280;16044;52.726;-2.108;2022-09-09T13:08:11;99721.72;;;22.13;57.95
28935;BME280;16044;52.726;-2.108;2022-09-09T13:13:26;99723.94;;;22.16;57.56
28935;BME280;16044;52.726;-2.108;2022-09-09T13:15:57;99722.63;;;22.29;57.77
28935;BME280;16044;52.726;-2.108;2022-09-09T13:18:29;99727.06;;;22.45;57.50
28935;BME280;16044;52.726;-2.108;2022-09-09T13:20:57;99722.94;;;22.53;56.67
28935;BME280;16044;52.726;-2.108;2022-09-09T13:23:32;99727.34;;;22.49;55.75
28935;BME280;16044;52.726;-2.108;2022-09-09T13:26:05;99727.91;;;22.41;55.84
28935;BME280;16044;52.726;-2.108;2022-09-09T13:28:34;99724.00;;;22.31;55.46
28935;BME280;16044;52.726;-2.108;2022-09-09T13:31:18;99727.25;;;22.13;56.34
28935;BME280;16044;52.726;-2.108;2022-09-09T13:33:50;99740.19;;;22.07;56.95
28935;BME280;16044;52.726;-2.108;2022-09-09T13:36:29;99738.56;;;22.06;56.83
28935;BME280;16044;52.726;-2.108;2022-09-09T13:38:59;99734.97;;;22.11;57.28
28935;BME280;16044;52.726;-2.108;2022-09-09T13:41:32;99733.84;;;22.07;56.95
28935;BME280;16044;52.726;-2.108;2022-09-09T13:44:02;99735.78;;;22.01;57.09
28935;BME280;16044;52.726;-2.108;2022-09-09T13:46:40;99742.69;;;22.09;56.77
28935;BME280;16044;52.726;-2.108;2022-09-09T13:54:09;99748.44;;;21.92;57.27
28935;BME280;16044;52.726;-2.108;2022-09-09T13:56:38;99746.00;;;22.00;57.25
28935;BME280;16044;52.726;-2.108;2022-09-09T13:59:11;99749.31;;;22.03;57.45
28935;BME280;16044;52.726;-2.108;2022-09-09T14:01:39;99740.44;;;21.95;56.38
28935;BME280;16044;52.726;-2.108;2022-09-09T14:04:07;99741.03;;;22.03;57.26
28935;BME280;16044;52.726;-2.108;2022-09-09T14:06:35;99748.72;;;21.95;57.04
28935;BME280;16044;52.726;-2.108;2022-09-09T14:09:06;99752.56;;;21.89;57.24
28935;BME280;16044;52.726;-2.108;2022-09-09T14:11:43;99760.22;;;21.77;56.75
28935;BME280;16044;52.726;-2.108;2022-09-09T14:14:10;99755.19;;;21.64;56.27
28935;BME280;16044;52.726;-2.108;2022-09-09T14:16:37;99777.69;;;21.45;57.28
28935;BME280;16044;52.726;-2.108;2022-09-09T14:19:04;99777.97;;;21.11;59.11
28935;BME280;16044;52.726;-2.108;2022-09-09T14:21:31;99789.31;;;20.55;60.82
28935;BME280;16044;52.726;-2.108;2022-09-09T14:23:59;99783.69;;;20.45;61.69
28935;BME280;16044;52.726;-2.108;2022-09-09T14:26:25;99790.91;;;20.24;62.82
28935;BME280;16044;52.726;-2.108;2022-09-09T14:28:52;99798.53;;;19.95;64.16
28935;BME280;16044;52.726;-2.108;2022-09-09T14:31:23;99810.25;;;19.68;65.62
28935;BME280;16044;52.726;-2.108;2022-09-09T14:33:51;99817.97;;;19.49;66.71
28935;BME280;16044;52.726;-2.108;2022-09-09T14:36:19;99821.13;;;19.24;67.62
28935;BME280;16044;52.726;-2.108;2022-09-09T14:38:46;99829.34;;;19.07;68.19
28935;BME280;16044;52.726;-2.108;2022-09-09T14:41:15;99824.78;;;18.96;68.30
28935;BME280;16044;52.726;-2.108;2022-09-09T14:43:44;99831.31;;;18.78;69.02
28935;BME280;16044;52.726;-2.108;2022-09-09T14:46:15;99833.72;;;18.74;69.21
28935;BME280;16044;52.726;-2.108;2022-09-09T14:48:43;99837.16;;;18.53;70.91
28935;BME280;16044;52.726;-2.108;2022-09-09T14:51:17;99838.13;;;18.46;71.49
28935;BME280;16044;52.726;-2.108;2022-09-09T14:53:46;99845.59;;;18.34;72.00
28935;BME280;16044;52.726;-2.108;2022-09-09T14:56:18;99835.00;;;18.14;73.96
28935;BME280;16044;52.726;-2.108;2022-09-09T14:58:47;99828.81;;;18.07;74.00
28935;BME280;16044;52.726;-2.108;2022-09-09T15:01:18;99832.78;;;17.99;74.51
28935;BME280;16044;52.726;-2.108;2022-09-09T15:03:52;99840.41;;;17.97;74.83
28935;BME280;16044;52.726;-2.108;2022-09-09T15:06:21;99830.78;;;17.95;75.36
28935;BME280;16044;52.726;-2.108;2022-09-09T15:08:51;99828.84;;;17.95;75.92
28935;BME280;16044;52.726;-2.108;2022-09-09T15:11:20;99831.84;;;18.05;76.08
28935;BME280;16044;52.726;-2.108;2022-09-09T15:13:47;99829.19;;;18.10;76.54
28935;BME280;16044;52.726;-2.108;2022-09-09T15:16:19;99827.25;;;18.23;76.32
28935;BME280;16044;52.726;-2.108;2022-09-09T15:18:51;99834.03;;;18.32;76.06
28935;BME280;16044;52.726;-2.108;2022-09-09T15:21:21;99844.59;;;18.40;75.96
28935;BME280;16044;52.726;-2.108;2022-09-09T15:23:49;99839.06;;;18.52;76.09
28935;BME280;16044;52.726;-2.108;2022-09-09T15:26:16;99838.50;;;18.67;76.17
28935;BME280;16044;52.726;-2.108;2022-09-09T15:28:45;99842.25;;;18.89;75.21
28935;BME280;16044;52.726;-2.108;2022-09-09T15:31:24;99836.09;;;18.99;74.96
28935;BME280;16044;52.726;-2.108;2022-09-09T15:33:55;99843.53;;;19.16;74.70
28935;BME280;16044;52.726;-2.108;2022-09-09T15:36:39;99850.63;;;19.28;74.69
28935;BME280;16044;52.726;-2.108;2022-09-09T15:39:10;99849.19;;;19.43;73.21
28935;BME280;16044;52.726;-2.108;2022-09-09T15:41:39;99854.19;;;19.46;73.54
28935;BME280;16044;52.726;-2.108;2022-09-09T15:44:06;99861.66;;;19.51;73.47
28935;BME280;16044;52.726;-2.108;2022-09-09T15:46:42;99861.50;;;19.57;73.40
28935;BME280;16044;52.726;-2.108;2022-09-09T15:49:16;99862.56;;;19.56;73.11